Time;durP1;ratioP1;P1;durP2;ratioP2;P2;SDS_P1;SDS_P2;PMS_P1;PMS_P2;Temp;Humidity;BMP_temperature;BMP_pressure;BME280_temperature;BME280_humidity;BME280_pressure;Samples;Min_cycle;Max_cycle;Signal;HPM_P1;HPM_P2
2022/09/01 00:00:08;;;;;;;0.30;0.30;;;;;;;21.28;42.09;101421.56;5140433;28;20039;-79
2022/09/01 00:02:41;;;;;;;0.30;0.30;;;;;;;21.26;42.03;101423.50;5155594;28;20042;-79
2022/09/01 00:05:12;;;;;;;0.50;0.50;;;;;;;21.21;42.37;101420.22;5138313;28;20035;-80
2022/09/01 00:07:43;;;;;;;0.30;0.30;;;;;;;21.18;42.35;101415.94;5173967;28;21377;-80
2022/09/01 00:10:14;;;;;;;0.35;0.35;;;;;;;21.15;42.67;101426.81;5143290;28;20109;-79
2022/09/01 00:12:44;;;;;;;0.30;0.30;;;;;;;21.11;42.48;101424.44;5173702;28;20046;-80
2022/09/01 00:15:16;;;;;;;0.20;0.20;;;;;;;21.07;42.63;101424.59;5162474;28;20038;-81
2022/09/01 00:17:46;;;;;;;0.43;0.43;;;;;;;21.05;42.67;101430.97;5156457;28;20038;-80
2022/09/01 00:20:17;;;;;;;0.43;0.43;;;;;;;21.03;42.73;101419.53;5138672;28;20042;-80
2022/09/01 00:22:48;;;;;;;0.52;0.43;;;;;;;21.01;42.64;101424.97;5123981;28;20045;-80
2022/09/01 00:25:19;;;;;;;0.20;0.20;;;;;;;21.01;42.63;101424.09;5137654;28;20042;-79
2022/09/01 00:27:50;;;;;;;0.30;0.30;;;;;;;20.96;42.78;101427.03;5140291;28;20038;-80
2022/09/01 00:30:21;;;;;;;0.30;0.30;;;;;;;20.84;43.22;101428.63;5138666;28;20704;-80
2022/09/01 00:32:51;;;;;;;0.25;0.25;;;;;;;20.86;42.82;101432.06;5132738;28;20089;-79
2022/09/01 00:35:22;;;;;;;0.20;0.20;;;;;;;20.86;42.76;101423.22;5169008;28;20504;-81
2022/09/01 00:37:52;;;;;;;0.30;0.30;;;;;;;20.82;42.76;101419.88;5160753;28;20042;-80
2022/09/01 00:40:23;;;;;;;0.20;0.20;;;;;;;20.82;42.68;101419.88;5162831;28;20046;-79
2022/09/01 00:42:53;;;;;;;0.70;0.70;;;;;;;20.79;43.06;101420.06;5153900;28;20073;-79
2022/09/01 00:45:25;;;;;;;0.20;0.20;;;;;;;20.79;43.03;101411.19;5125241;28;20027;-79
2022/09/01 00:47:55;;;;;;;0.30;0.30;;;;;;;20.74;43.19;101407.00;5145218;28;20046;-80
2022/09/01 00:50:26;;;;;;;2.20;0.47;;;;;;;20.72;43.16;101414.19;5163613;28;20037;-79
2022/09/01 00:52:56;;;;;;;0.50;0.50;;;;;;;20.73;43.13;101412.44;5146805;28;20070;-79
2022/09/01 00:55:30;;;;;;;0.30;0.30;;;;;;;20.72;43.39;101410.69;5142595;28;20038;-79
2022/09/01 00:58:06;;;;;;;0.60;0.60;;;;;;;20.70;43.39;101415.22;5155232;28;20111;-78
2022/09/01 01:00:39;;;;;;;0.50;0.50;;;;;;;20.61;43.61;101416.66;5120531;28;20047;-78
2022/09/01 01:03:12;;;;;;;0.65;0.65;;;;;;;20.52;44.03;101412.69;5113090;28;20031;-79
2022/09/01 01:05:52;;;;;;;0.40;0.40;;;;;;;20.52;43.53;101414.50;5133069;28;20124;-79
2022/09/01 01:08:33;;;;;;;0.40;0.40;;;;;;;20.56;43.57;101413.38;5155129;28;20042;-79
2022/09/01 01:11:08;;;;;;;0.30;0.30;;;;;;;20.54;43.52;101410.81;5156567;28;20106;-78
2022/09/01 01:13:53;;;;;;;1.20;0.55;;;;;;;20.40;44.11;101416.94;5161677;28;20027;-79
2022/09/01 01:16:27;;;;;;;0.30;0.30;;;;;;;20.42;43.42;101411.50;5141673;28;20023;-79
2022/09/01 01:18:57;;;;;;;0.22;0.22;;;;;;;20.43;43.47;101408.78;5120027;28;20451;-78
2022/09/01 01:24:31;;;;;;;0.30;0.30;;;;;;;20.40;43.65;101414.25;5144201;28;20069;-78
2022/09/01 01:27:03;;;;;;;0.60;0.35;;;;;;;20.37;43.62;101414.44;5156569;28;20035;-78
2022/09/01 01:29:38;;;;;;;0.30;0.30;;;;;;;20.37;43.68;101418.91;5168134;28;20034;-78
2022/09/01 01:32:11;;;;;;;0.20;0.20;;;;;;;20.36;43.59;101417.19;5108267;28;20030;-79
2022/09/01 01:34:44;;;;;;;0.40;0.40;;;;;;;20.34;44.03;101414.63;5162253;28;20039;-79
2022/09/01 01:37:15;;;;;;;0.90;0.90;;;;;;;20.30;43.43;101418.41;5136837;28;20032;-79
2022/09/01 01:39:47;;;;;;;0.30;0.30;;;;;;;20.27;43.59;101414.09;5136253;28;20041;-79
2022/09/01 01:42:18;;;;;;;0.20;0.20;;;;;;;20.25;43.68;101410.66;5135116;28;20031;-78
2022/09/01 01:44:48;;;;;;;0.20;0.20;;;;;;;20.26;43.76;101415.06;5146928;28;20041;-78
2022/09/01 01:47:20;;;;;;;0.45;0.45;;;;;;;20.18;43.79;101416.44;5113126;28;20058;-78
2022/09/01 01:49:51;;;;;;;0.40;0.40;;;;;;;20.13;43.91;101420.22;5150763;28;20061;-79
2022/09/01 01:52:23;;;;;;;0.30;0.30;;;;;;;20.15;44.11;101416.59;5141550;28;20039;-79
2022/09/01 01:54:55;;;;;;;0.50;0.50;;;;;;;20.11;43.99;101421.25;5135538;28;20041;-79
2022/09/01 01:57:30;;;;;;;0.30;0.30;;;;;;;20.07;44.09;101425.03;5125727;28;20039;-79
2022/09/01 02:00:04;;;;;;;0.30;0.30;;;;;;;20.06;43.98;101420.66;5116632;28;20035;-79
2022/09/01 02:02:36;;;;;;;0.20;0.20;;;;;;;20.07;43.91;101425.91;5162619;28;20053;-79
2022/09/01 02:05:08;;;;;;;0.95;0.57;;;;;;;20.01;44.12;101428.03;5154367;28;20078;-78
2022/09/01 02:07:42;;;;;;;0.28;0.28;;;;;;;20.03;44.22;101416.38;5163387;28;20042;-78
2022/09/01 02:10:12;;;;;;;0.68;0.68;;;;;;;19.97;44.40;101422.91;5128700;28;20033;-78
2022/09/01 02:12:43;;;;;;;0.50;0.50;;;;;;;19.99;43.97;101424.63;5150965;28;20119;-79
2022/09/01 02:15:14;;;;;;;0.55;0.55;;;;;;;19.98;44.10;101423.75;5138645;28;20089;-79
2022/09/01 02:17:46;;;;;;;0.40;0.40;;;;;;;19.95;44.14;101427.44;5143795;28;20042;-79
2022/09/01 02:20:17;;;;;;;0.30;0.30;;;;;;;19.93;44.12;101426.66;5140048;28;20399;-78
2022/09/01 02:22:47;;;;;;;0.43;0.43;;;;;;;19.88;44.40;101427.84;5107365;28;20039;-78
2022/09/01 02:25:19;;;;;;;0.50;0.50;;;;;;;19.82;44.58;101429.03;5168673;28;20026;-79
2022/09/01 02:27:52;;;;;;;0.30;0.30;;;;;;;19.83;44.36;101425.44;5160733;28;20440;-79
2022/09/01 02:30:23;;;;;;;1.02;0.95;;;;;;;19.82;44.40;101429.03;5123874;28;20051;-78
2022/09/01 02:32:54;;;;;;;0.20;0.20;;;;;;;19.75;44.77;101428.50;5130609;28;20051;-79
2022/09/01 02:35:35;;;;;;;0.40;0.40;;;;;;;19.75;44.65;101425.84;5124769;28;20095;-79
2022/09/01 02:38:09;;;;;;;0.60;0.60;;;;;;;19.75;44.37;101417.84;5138136;28;20035;-79
2022/09/01 02:40:45;;;;;;;0.30;0.30;;;;;;;19.80;44.34;101422.94;5174086;28;20045;-78
2022/09/01 02:43:19;;;;;;;0.30;0.30;;;;;;;19.78;44.56;101427.47;5139579;28;20038;-78
2022/09/01 02:45:54;;;;;;;0.70;0.38;;;;;;;19.81;44.81;101425.50;5153906;28;20484;-79
2022/09/01 02:48:31;;;;;;;0.30;0.30;;;;;;;19.74;44.84;101421.47;5158422;28;20122;-78
2022/09/01 02:51:15;;;;;;;2.92;0.63;;;;;;;19.67;45.01;101426.25;5124865;28;20026;-79
2022/09/01 02:53:50;;;;;;;0.47;0.47;;;;;;;19.65;44.87;101427.28;5123124;28;20505;-79
2022/09/01 02:56:22;;;;;;;0.20;0.20;;;;;;;19.62;44.78;101425.66;5161408;28;20038;-78
2022/09/01 02:58:52;;;;;;;3.00;2.15;;;;;;;19.62;44.91;101419.47;5143006;28;20038;-78
2022/09/01 03:01:46;;;;;;;0.20;0.20;;;;;;;19.56;44.87;101420.66;5140622;28;20035;-79
2022/09/01 03:04:19;;;;;;;0.40;0.40;;;;;;;19.55;45.10;101418.06;5159583;28;20561;-78
2022/09/01 03:06:53;;;;;;;0.30;0.30;;;;;;;19.52;44.95;101413.78;5143595;28;20174;-78
2022/09/01 03:09:28;;;;;;;0.50;0.50;;;;;;;19.53;45.31;101412.84;5152019;28;20031;-79
2022/09/01 03:11:58;;;;;;;0.30;0.30;;;;;;;19.49;45.47;101414.81;5142063;28;20039;-79
2022/09/01 03:14:30;;;;;;;0.30;0.30;;;;;;;19.48;45.52;101413.09;5146624;28;20034;-78
2022/09/01 03:17:01;;;;;;;0.22;0.22;;;;;;;19.40;44.96;101417.09;5142012;28;20069;-79
2022/09/01 03:19:43;;;;;;;6.75;1.08;;;;;;;19.31;45.49;101419.31;5141689;28;20508;-78
2022/09/01 03:22:13;;;;;;;0.52;0.52;;;;;;;19.29;45.39;101420.34;5145115;28;20113;-79
2022/09/01 03:24:44;;;;;;;0.38;0.38;;;;;;;19.32;45.47;101425.47;5127920;28;20205;-79
2022/09/01 03:27:14;;;;;;;0.30;0.30;;;;;;;19.24;45.44;101420.59;5155621;28;20035;-78
2022/09/01 03:29:45;;;;;;;0.20;0.20;;;;;;;19.22;45.40;101426.91;5174609;28;20043;-78
2022/09/01 03:32:16;;;;;;;0.52;0.52;;;;;;;19.19;45.86;101422.59;5137159;28;20055;-78
2022/09/01 03:34:46;;;;;;;0.55;0.55;;;;;;;19.15;45.42;101424.56;5154615;28;20030;-78
2022/09/01 03:37:17;;;;;;;0.80;0.80;;;;;;;19.11;45.49;101423.03;5119066;28;20062;-79
2022/09/01 03:39:48;;;;;;;0.20;0.20;;;;;;;19.12;45.89;101422.09;5154115;28;20030;-78
2022/09/01 03:42:18;;;;;;;0.38;0.38;;;;;;;19.08;45.49;101422.31;5134734;28;20105;-79
2022/09/01 03:44:50;;;;;;;0.30;0.30;;;;;;;19.07;45.92;101415.28;5156295;28;20888;-80
2022/09/01 03:47:23;;;;;;;1.83;0.85;;;;;;;18.91;46.83;101421.38;5124247;28;20034;-80
2022/09/01 03:49:54;;;;;;;0.55;0.55;;;;;;;18.93;46.09;101419.50;5142215;28;20118;-79
2022/09/01 03:52:26;;;;;;;0.57;0.57;;;;;;;18.97;45.92;101421.06;5125894;28;20133;-80
2022/09/01 03:54:58;;;;;;;0.30;0.30;;;;;;;18.95;46.07;101406.13;5168971;28;20083;-80
2022/09/01 03:57:29;;;;;;;0.70;0.70;;;;;;;18.90;46.24;101413.44;5138650;28;20042;-79
2022/09/01 03:59:59;;;;;;;0.28;0.28;;;;;;;18.87;45.93;101412.69;5154065;28;20038;-80
2022/09/01 04:02:39;;;;;;;0.55;0.55;;;;;;;18.86;45.91;101410.09;5145099;28;20084;-83
2022/09/01 04:05:09;;;;;;;0.50;0.50;;;;;;;18.90;46.72;101401.03;5148640;28;20022;-80
2022/09/01 04:07:44;;;;;;;0.32;0.32;;;;;;;18.83;46.37;101405.78;5136754;28;20050;-79
2022/09/01 04:10:16;;;;;;;;;;;;;;;18.83;46.43;101407.59;5148699;28;20030;-78
2022/09/01 04:12:48;;;;;;;0.55;0.55;;;;;;;18.83;46.46;101404.94;5173106;28;19933;-80
2022/09/01 04:15:18;;;;;;;0.90;0.73;;;;;;;18.76;46.46;101401.72;5123804;28;20050;-78
2022/09/01 04:20:58;;;;;;;0.98;0.95;;;;;;;18.71;46.68;101407.28;5088528;29;20047;-78
2022/09/01 04:23:35;;;;;;;0.75;0.30;;;;;;;18.69;46.76;101400.31;5110143;28;20031;-79
2022/09/01 04:26:19;;;;;;;0.40;0.40;;;;;;;18.69;46.71;101403.81;5156533;28;20027;-78
2022/09/01 04:28:49;;;;;;;0.28;0.28;;;;;;;18.55;46.98;101407.16;5164837;28;20059;-79
2022/09/01 04:31:20;;;;;;;0.30;0.30;;;;;;;18.59;46.55;101409.69;5158224;28;20030;-78
2022/09/01 04:33:51;;;;;;;0.20;0.20;;;;;;;18.53;46.89;101411.72;5105365;28;20060;-79
2022/09/01 04:36:26;;;;;;;1.38;0.55;;;;;;;18.48;47.02;101411.06;5138502;28;20114;-78
2022/09/01 04:39:00;;;;;;;0.20;0.20;;;;;;;18.46;46.92;101412.97;5140902;28;20043;-79
2022/09/01 04:41:32;;;;;;;2.00;0.80;;;;;;;18.48;47.05;101411.06;5150691;28;20056;-78
2022/09/01 04:44:04;;;;;;;1.05;1.05;;;;;;;18.45;47.06;101407.72;5120560;28;20031;-79
2022/09/01 04:46:45;;;;;;;0.30;0.30;;;;;;;18.45;47.05;101413.91;5131192;28;20087;-79
2022/09/01 04:49:20;;;;;;;0.45;0.45;;;;;;;18.48;47.09;101412.88;5139892;28;20027;-79
2022/09/01 04:51:52;;;;;;;0.38;0.38;;;;;;;18.44;47.03;101416.59;5167393;28;20051;-79
2022/09/01 04:54:23;;;;;;;1.77;1.45;;;;;;;18.41;47.05;101412.31;5157091;28;20031;-79
2022/09/01 04:56:53;;;;;;;0.20;0.20;;;;;;;18.40;47.03;101410.59;5137226;28;20061;-80
2022/09/01 04:59:26;;;;;;;0.30;0.30;;;;;;;18.43;47.12;101414.91;5155575;28;20043;-80
2022/09/01 05:01:58;;;;;;;0.40;0.40;;;;;;;18.36;47.31;101414.34;5141330;28;20159;-81
2022/09/01 05:04:32;;;;;;;0.32;0.32;;;;;;;18.37;47.16;101424.03;5133755;28;20438;-79
2022/09/01 05:07:04;;;;;;;0.68;0.68;;;;;;;18.28;47.46;101420.03;5138302;28;20177;-79
2022/09/01 05:09:36;;;;;;;0.60;0.60;;;;;;;18.29;47.33;101415.59;5164655;28;20026;-79
2022/09/01 05:12:15;;;;;;;0.35;0.35;;;;;;;18.18;47.83;101421.41;5129291;28;20143;-80
2022/09/01 05:14:47;;;;;;;0.45;0.45;;;;;;;18.23;47.57;101420.25;5165448;28;20057;-78
2022/09/01 05:17:17;;;;;;;0.22;0.22;;;;;;;18.24;47.63;101421.13;5121853;28;20039;-79
2022/09/01 05:19:49;;;;;;;0.65;0.65;;;;;;;18.12;48.28;101422.56;5127977;28;20031;-79
2022/09/01 05:22:20;;;;;;;0.60;0.60;;;;;;;18.13;47.60;101424.28;5117811;28;20039;-78
2022/09/01 05:24:51;;;;;;;0.38;0.38;;;;;;;18.10;47.68;101424.44;5135733;28;20094;-79
2022/09/01 05:27:22;;;;;;;0.40;0.40;;;;;;;18.12;47.95;101422.56;5124765;28;20039;-79
2022/09/01 05:29:52;;;;;;;0.40;0.40;;;;;;;18.09;47.93;101426.25;5111926;28;20039;-80
2022/09/01 05:32:24;;;;;;;0.43;0.43;;;;;;;18.05;48.38;101429.97;5142032;28;20118;-79
2022/09/01 05:34:56;;;;;;;0.60;0.60;;;;;;;18.11;47.68;101431.47;5141757;28;20019;-80
2022/09/01 05:37:27;;;;;;;0.28;0.28;;;;;;;18.09;47.67;101430.66;5127276;28;20050;-80
2022/09/01 05:39:58;;;;;;;0.30;0.30;;;;;;;18.01;48.65;101431.06;5137348;28;20023;-80
2022/09/01 05:42:29;;;;;;;0.52;0.52;;;;;;;18.08;48.02;101431.59;5136841;28;20058;-79
2022/09/01 05:45:00;;;;;;;0.43;0.43;;;;;;;18.09;47.91;101433.31;5105366;28;20058;-78
2022/09/01 05:47:35;;;;;;;0.35;0.35;;;;;;;18.10;48.40;101435.06;5120098;28;20125;-78
2022/09/01 05:50:10;;;;;;;0.30;0.30;;;;;;;18.12;48.19;101434.97;5146591;28;20566;-78
2022/09/01 05:52:43;;;;;;;4.05;1.67;;;;;;;18.14;47.93;101436.59;5114450;28;20469;-78
2022/09/01 05:55:14;;;;;;;0.45;0.45;;;;;;;18.16;47.89;101434.75;5118983;28;20090;-78
2022/09/01 05:57:46;;;;;;;0.30;0.30;;;;;;;18.14;47.99;101441.06;5123279;28;20713;-79
2022/09/01 06:00:17;;;;;;;0.30;0.30;;;;;;;18.13;48.32;101440.22;5148989;28;20061;-78
2022/09/01 06:02:47;;;;;;;0.88;0.88;;;;;;;18.11;48.48;101436.78;5132376;28;20054;-78
2022/09/01 06:05:18;;;;;;;0.20;0.20;;;;;;;18.17;48.33;101440.94;5112659;28;20043;-77
2022/09/01 06:07:49;;;;;;;0.45;0.45;;;;;;;18.14;49.41;101447.22;5131608;28;20035;-77
2022/09/01 06:10:20;;;;;;;0.40;0.40;;;;;;;17.89;51.62;101443.03;5107124;29;20122;-78
2022/09/01 06:12:52;;;;;;;0.95;0.65;;;;;;;18.03;49.79;101439.78;5161044;28;20693;-79
2022/09/01 06:15:23;;;;;;;0.52;0.52;;;;;;;18.04;49.72;101435.34;5171405;28;20435;-77
2022/09/01 06:17:54;;;;;;;1.17;0.40;;;;;;;18.06;49.33;101436.13;5152480;28;20051;-79
2022/09/01 06:20:26;;;;;;;0.75;0.75;;;;;;;18.08;49.31;101439.56;5135874;28;20125;-80
2022/09/01 06:22:58;;;;;;;0.57;0.57;;;;;;;18.18;49.21;101435.53;5123936;28;20047;-79
2022/09/01 06:25:29;;;;;;;0.32;0.32;;;;;;;18.14;49.35;101435.75;5157686;28;20039;-80
2022/09/01 06:28:03;;;;;;;1.40;1.30;;;;;;;18.15;50.09;101443.66;5163699;28;20586;-79
2022/09/01 06:30:35;;;;;;;0.22;0.22;;;;;;;18.16;49.64;101439.22;5088044;28;20094;-78
2022/09/01 06:33:10;;;;;;;0.50;0.50;;;;;;;18.13;50.31;101439.34;5148785;28;20105;-79
2022/09/01 06:35:43;;;;;;;0.30;0.30;;;;;;;18.16;49.66;101442.72;5116980;28;20024;-80
2022/09/01 06:38:16;;;;;;;1.55;1.10;;;;;;;18.21;49.17;101448.69;5118455;28;20662;-79
2022/09/01 06:40:47;;;;;;;0.50;0.50;;;;;;;18.15;50.86;101454.28;5147117;28;20396;-81
2022/09/01 06:43:18;;;;;;;0.28;0.28;;;;;;;18.15;50.56;101454.28;5142825;28;20050;-80
2022/09/01 06:45:53;;;;;;;1.05;0.57;;;;;;;18.29;50.40;101458.09;5154529;28;20026;-79
2022/09/01 06:48:23;;;;;;;0.43;0.43;;;;;;;18.43;51.96;101458.28;5141502;28;20568;-80
2022/09/01 06:50:54;;;;;;;0.50;0.50;;;;;;;18.58;49.73;101458.44;5121280;28;20046;-79
2022/09/01 06:53:24;;;;;;;0.40;0.40;;;;;;;18.54;51.66;101450.66;5121807;28;20518;-79
2022/09/01 06:55:55;;;;;;;0.85;0.40;;;;;;;18.52;51.07;101449.84;5137752;28;20027;-79
2022/09/01 06:58:25;;;;;;;0.47;0.47;;;;;;;18.60;50.34;101451.28;5134890;28;20069;-79
2022/09/01 07:00:56;;;;;;;0.45;0.45;;;;;;;18.72;49.83;101454.19;5133958;28;20047;-80
2022/09/01 07:03:26;;;;;;;0.25;0.25;;;;;;;18.72;50.15;101455.97;5137661;28;20047;-80
2022/09/01 07:05:57;;;;;;;0.68;0.40;;;;;;;18.69;51.38;101456.13;5147264;28;20023;-79
2022/09/01 07:08:28;;;;;;;0.30;0.30;;;;;;;18.81;49.93;101463.47;5126710;29;20130;-79
2022/09/01 07:11:00;;;;;;;0.40;0.38;;;;;;;18.90;50.20;101451.53;5135482;28;20726;-80
2022/09/01 07:13:32;;;;;;;0.30;0.30;;;;;;;18.75;52.02;101461.13;5152214;28;20065;-79
2022/09/01 07:16:05;;;;;;;0.22;0.22;;;;;;;18.70;51.11;101471.16;5124166;28;20081;-79
2022/09/01 07:18:35;;;;;;;0.22;0.22;;;;;;;18.82;50.10;101459.03;5103995;28;20062;-79
2022/09/01 07:21:06;;;;;;;0.30;0.30;;;;;;;18.87;50.43;101460.53;5132023;28;20044;-79
2022/09/01 07:23:37;;;;;;;0.20;0.20;;;;;;;18.81;50.83;101460.81;5131959;28;20043;-80
2022/09/01 07:26:09;;;;;;;0.52;0.52;;;;;;;18.86;51.58;101456.16;5130565;28;20087;-79
2022/09/01 07:28:39;;;;;;;2.92;0.75;;;;;;;18.86;51.17;101461.47;5149632;28;20089;-78
2022/09/01 07:31:20;;;;;;;2.05;0.50;;;;;;;18.93;50.79;101464.69;5155571;28;20069;-79
2022/09/01 07:33:53;;;;;;;0.25;0.25;;;;;;;18.86;51.64;101457.94;5122596;28;20039;-79
2022/09/01 07:36:34;;;;;;;0.30;0.30;;;;;;;18.97;50.11;101455.63;5137970;28;20035;-79
2022/09/01 07:39:06;;;;;;;0.50;0.50;;;;;;;19.01;51.49;101453.69;5133620;28;20039;-80
2022/09/01 07:41:40;;;;;;;0.63;0.63;;;;;;;19.03;50.94;101449.16;5158617;28;20475;-79
2022/09/01 07:44:12;;;;;;;0.22;0.22;;;;;;;19.14;49.88;101452.09;5149910;28;20035;-79
2022/09/01 07:46:43;;;;;;;0.70;0.68;;;;;;;19.15;49.93;101458.31;5143196;28;20031;-79
2022/09/01 07:49:13;;;;;;;0.50;0.50;;;;;;;19.21;49.79;101459.78;5125724;28;20023;-78
2022/09/01 07:51:48;;;;;;;0.52;0.52;;;;;;;19.23;49.78;101457.88;5142377;28;20093;-77
2022/09/01 07:54:23;;;;;;;0.43;0.43;;;;;;;19.31;49.67;101450.38;5163238;28;20039;-78
2022/09/01 07:56:54;;;;;;;0.60;0.60;;;;;;;19.23;50.30;101450.78;5136291;28;20443;-77
2022/09/01 07:59:26;;;;;;;0.25;0.25;;;;;;;19.35;49.78;101451.94;5161340;28;20113;-79
2022/09/01 08:01:57;;;;;;;0.28;0.28;;;;;;;19.33;50.09;101460.00;5165722;28;20035;-79
2022/09/01 08:04:27;;;;;;;0.20;0.20;;;;;;;19.38;49.88;101459.75;5128120;28;20037;-77
2022/09/01 08:06:59;;;;;;;0.40;0.40;;;;;;;19.41;49.66;101462.25;5140672;28;20050;-79
2022/09/01 08:09:29;;;;;;;0.30;0.30;;;;;;;19.43;49.95;101465.69;5108359;28;20657;-80
2022/09/01 08:12:00;;;;;;;0.57;0.57;;;;;;;19.50;49.60;101456.44;5144977;28;20126;-78
2022/09/01 08:14:31;;;;;;;3.47;1.35;;;;;;;19.52;49.61;101455.50;5106710;28;20063;-79
2022/09/01 08:17:02;;;;;;;0.30;0.30;;;;;;;19.55;49.89;101464.19;5144629;28;20512;-78
2022/09/01 08:19:32;;;;;;;3.20;1.02;;;;;;;19.59;49.86;101459.56;5112222;28;20039;-78
2022/09/01 08:22:03;;;;;;;1.10;0.50;;;;;;;19.66;49.53;101458.28;5140108;28;20594;-79
2022/09/01 08:24:41;;;;;;;0.32;0.32;;;;;;;19.68;49.71;101453.75;5139130;28;20041;-79
2022/09/01 08:27:12;;;;;;;0.50;0.50;;;;;;;19.70;49.80;101457.19;5144810;28;20043;-80
2022/09/01 08:29:43;;;;;;;0.80;0.80;;;;;;;19.74;49.41;101453.41;5132142;28;20062;-79
2022/09/01 08:32:13;;;;;;;0.30;0.30;;;;;;;19.80;48.61;101458.41;5138475;28;20574;-79
2022/09/01 08:34:44;;;;;;;0.32;0.32;;;;;;;19.79;49.20;101455.81;5129094;28;20036;-80
2022/09/01 08:37:14;;;;;;;0.35;0.35;;;;;;;19.82;49.21;101467.16;5123681;28;20685;-80
2022/09/01 08:39:45;;;;;;;0.20;0.20;;;;;;;19.88;49.25;101459.81;5155400;28;20106;-79
2022/09/01 08:42:23;;;;;;;0.28;0.28;;;;;;;19.86;49.13;101456.38;5153358;28;20499;-80
2022/09/01 08:45:29;;;;;;;0.57;0.57;;;;;;;19.91;48.80;101455.19;5152151;28;20070;-80
2022/09/01 08:48:14;;;;;;;0.20;0.20;;;;;;;20.02;48.56;101446.63;5125993;28;20046;-79
2022/09/01 08:50:53;;;;;;;0.38;0.38;;;;;;;20.05;48.26;101446.41;5164613;28;21096;-79
2022/09/01 08:53:40;;;;;;;0.20;0.20;;;;;;;20.15;47.89;101440.59;5179066;28;20091;-79
2022/09/01 08:56:12;;;;;;;0.32;0.30;;;;;;;20.12;48.13;101441.63;5182801;28;20298;-81
2022/09/01 08:58:43;;;;;;;0.20;0.20;;;;;;;20.10;48.17;101441.72;5154585;28;20085;-81
2022/09/01 09:01:40;;;;;;;0.30;0.30;;;;;;;20.18;48.13;101441.25;5104356;28;20035;-79
2022/09/01 09:04:46;;;;;;;0.85;0.85;;;;;;;20.19;48.14;101436.81;5087731;28;20050;-79
2022/09/01 09:07:25;;;;;;;0.25;0.25;;;;;;;20.23;47.23;101433.03;5147778;28;20051;-80
2022/09/01 09:10:15;;;;;;;0.20;0.20;;;;;;;20.31;47.28;101427.25;5160100;28;20031;-80
2022/09/01 09:13:10;;;;;;;0.20;0.20;;;;;;;20.32;46.21;101432.50;5086161;29;20039;-81
2022/09/01 09:15:57;;;;;;;0.73;0.40;;;;;;;20.33;46.96;101423.56;5131968;28;20038;-81
2022/09/01 09:18:48;;;;;;;0.28;0.28;;;;;;;20.42;45.72;101428.38;5119234;28;20035;-80
2022/09/01 09:21:28;;;;;;;0.20;0.20;;;;;;;20.52;44.86;101430.50;5106539;29;20066;-80
2022/09/01 09:24:23;;;;;;;0.73;0.60;;;;;;;20.52;44.37;101422.50;5155132;28;20047;-79
2022/09/01 09:26:57;;;;;;;0.80;0.47;;;;;;;20.63;44.91;101422.72;5168885;28;20057;-79
2022/09/01 09:29:28;;;;;;;0.15;0.15;;;;;;;20.67;45.62;101421.59;5177739;28;20113;-80
2022/09/01 09:32:09;;;;;;;0.40;0.40;;;;;;;20.84;43.94;101430.44;5150786;28;20624;-79
2022/09/01 09:34:41;;;;;;;0.30;0.30;;;;;;;20.84;44.25;101412.63;5141309;28;20031;-80
2022/09/01 09:37:26;;;;;;;0.20;0.20;;;;;;;20.95;44.01;101413.81;5154048;28;20405;-80
2022/09/01 09:40:10;;;;;;;0.63;0.63;;;;;;;20.95;43.26;101408.47;5142153;28;20049;-80
2022/09/01 09:43:00;;;;;;;0.28;0.28;;;;;;;20.98;44.12;101402.97;5126887;28;20128;-80
2022/09/01 09:45:38;;;;;;;0.40;0.40;;;;;;;21.13;42.45;101394.03;5171461;28;20034;-80
2022/09/01 09:48:31;;;;;;;0.35;0.35;;;;;;;21.13;42.81;101396.69;5140998;28;20057;-83
2022/09/01 09:51:36;;;;;;;0.20;0.20;;;;;;;21.30;39.88;101392.97;5136589;28;20125;-83
2022/09/01 09:54:19;;;;;;;0.20;0.20;;;;;;;21.25;40.56;101387.06;5100007;28;20042;-82
2022/09/01 09:57:05;;;;;;;;;;;;;;;21.27;40.33;101385.19;5138390;28;20447;-82
2022/09/01 09:59:41;;;;;;;0.20;0.20;;;;;;;21.36;41.11;101383.72;5129708;28;20009;-81
2022/09/01 10:02:32;;;;;;;0.20;0.20;;;;;;;21.46;38.34;101381.34;5145350;28;20058;-82
2022/09/01 10:05:32;;;;;;;0.20;0.20;;;;;;;21.51;38.30;101385.44;5109286;29;20626;-82
2022/09/01 10:08:05;;;;;;;0.70;0.63;;;;;;;21.65;37.29;101386.44;5127569;28;20039;-81
2022/09/01 10:10:46;;;;;;;0.30;0.30;;;;;;;21.62;37.55;101374.09;5138232;28;20045;-81
2022/09/01 10:13:23;;;;;;;0.20;0.20;;;;;;;21.62;37.83;101383.94;5123833;28;20062;-81
2022/09/01 10:15:57;;;;;;;0.22;0.22;;;;;;;21.68;38.36;101378.22;5100610;28;20039;-81
2022/09/01 10:18:41;;;;;;;0.30;0.30;;;;;;;21.68;38.84;101375.53;5163693;28;20083;-82
2022/09/01 10:21:17;;;;;;;0.30;0.30;;;;;;;21.80;38.43;101373.88;5151709;28;20039;-81
2022/09/01 10:23:48;;;;;;;0.20;0.20;;;;;;;21.85;38.30;101369.13;5156900;28;20050;-81
2022/09/01 10:26:28;;;;;;;0.20;0.20;;;;;;;21.81;38.75;101370.25;5125388;28;20597;-81
2022/09/01 10:29:14;;;;;;;0.30;0.30;;;;;;;21.86;38.42;101362.81;5158679;28;20074;-81
2022/09/01 10:31:44;;;;;;;0.20;0.20;;;;;;;22.09;38.22;101363.13;5167232;28;20030;-82
2022/09/01 10:34:18;;;;;;;0.30;0.30;;;;;;;22.08;35.80;101364.09;5147397;28;20027;-81
2022/09/01 10:36:49;;;;;;;0.55;0.32;;;;;;;22.09;37.32;101360.47;5147164;28;20047;-81
2022/09/01 10:39:19;;;;;;;0.55;0.55;;;;;;;22.07;37.42;101359.69;5111603;28;20031;-81
2022/09/01 10:41:53;;;;;;;0.20;0.20;;;;;;;22.15;36.05;101354.72;5088049;28;20069;-81
2022/09/01 10:44:37;;;;;;;0.20;0.20;;;;;;;22.14;37.48;101356.53;5146019;28;20129;-83
2022/09/01 10:47:09;;;;;;;0.13;0.13;;;;;;;22.26;35.73;101359.34;5109225;28;20047;-82
2022/09/01 10:49:43;;;;;;;0.30;0.30;;;;;;;22.32;34.77;101358.91;5154193;28;20130;-82
2022/09/01 10:52:41;;;;;;;0.10;0.10;;;;;;;22.37;33.39;101346.13;5152120;28;20051;-82
2022/09/01 10:55:58;;;;;;;0.43;0.43;;;;;;;22.28;35.81;101347.56;5169986;28;20070;-82
2022/09/01 10:58:44;;;;;;;0.47;0.30;;;;;;;22.29;37.10;101343.94;5136193;28;20051;-82
2022/09/01 11:01:15;;;;;;;0.30;0.30;;;;;;;22.50;36.14;101351.53;5155577;28;20026;-81
2022/09/01 11:03:53;;;;;;;0.60;0.60;;;;;;;22.66;34.78;101342.47;5179307;28;20031;-82
2022/09/01 11:06:52;;;;;;;0.20;0.20;;;;;;;22.62;34.57;101344.50;5149726;28;20073;-83
2022/09/01 11:09:23;;;;;;;0.38;0.38;;;;;;;22.63;34.96;101347.06;5126257;28;20109;-81
2022/09/01 11:11:59;;;;;;;0.20;0.20;;;;;;;22.64;36.65;101338.06;5142442;28;20054;-83
2022/09/01 11:14:53;;;;;;;0.20;0.20;;;;;;;22.67;36.39;101338.81;5167722;28;20483;-82
2022/09/01 11:17:36;;;;;;;0.20;0.20;;;;;;;22.83;35.15;101336.81;5140745;28;20030;-83
2022/09/01 11:20:21;;;;;;;0.25;0.25;;;;;;;;;;5151675;28;20018;-81
2022/09/01 11:23:29;;;;;;;0.30;0.30;;;;;;;23.00;35.26;101329.41;5116116;28;20043;-81
2022/09/01 11:26:20;;;;;;;0.28;0.28;;;;;;;22.98;35.88;101328.66;5140567;28;20211;-82
2022/09/01 11:28:51;;;;;;;0.20;0.20;;;;;;;22.95;36.63;101325.22;5110628;28;20066;-83
2022/09/01 11:31:40;;;;;;;0.20;0.20;;;;;;;23.14;36.39;101325.78;5146112;28;20031;-81
2022/09/01 11:34:15;;;;;;;0.20;0.20;;;;;;;23.12;36.05;101325.88;5147074;28;20071;-85
2022/09/01 11:36:52;;;;;;;0.20;0.20;;;;;;;23.20;35.29;101323.53;5131693;28;20031;-82
2022/09/01 11:39:40;;;;;;;0.20;0.20;;;;;;;23.27;33.80;101323.97;5155432;28;20030;-83
2022/09/01 11:42:37;;;;;;;0.30;0.30;;;;;;;23.42;34.59;101316.66;5157519;28;20451;-82
2022/09/01 11:45:10;;;;;;;0.20;0.20;;;;;;;23.39;34.19;101312.34;5126921;28;20023;-82
2022/09/01 11:47:45;;;;;;;0.20;0.20;;;;;;;23.46;35.84;101315.44;5130918;28;20049;-82
2022/09/01 11:50:21;;;;;;;0.30;0.30;;;;;;;23.58;34.88;101311.91;5129575;28;20058;-81
2022/09/01 11:52:56;;;;;;;0.10;0.10;;;;;;;23.76;35.82;101316.00;5134253;28;20535;-80
2022/09/01 11:55:36;;;;;;;0.20;0.20;;;;;;;23.87;33.13;101310.72;5157762;28;20030;-82
2022/09/01 11:58:12;;;;;;;0.20;0.20;;;;;;;23.81;34.15;101312.03;5130276;28;20040;-82
2022/09/01 12:00:44;;;;;;;0.20;0.20;;;;;;;23.86;34.46;101306.31;5151197;28;20035;-82
2022/09/01 12:03:24;;;;;;;0.20;0.20;;;;;;;24.07;33.14;101305.69;5148727;28;20842;-82
2022/09/01 12:05:59;;;;;;;1.17;0.60;;;;;;;24.06;35.30;101302.19;5152044;28;20592;-81
2022/09/01 12:08:33;;;;;;;0.35;0.35;;;;;;;24.39;33.08;101302.41;5114369;28;20050;-81